Time;durP1;ratioP1;P1;durP2;ratioP2;P2;SDS_P1;SDS_P2;PMS_P1;PMS_P2;Temp;Humidity;BMP_temperature;BMP_pressure;BME280_temperature;BME280_humidity;BME280_pressure;Samples;Min_cycle;Max_cycle;Signal;HPM_P1;HPM_P2
2023/10/30 00:01:37;;;;;;;;;;;22.70;68.80;;;;;;5005606;28;1975;-71
2023/10/30 00:04:02;;;;;;;;;;;22.70;68.80;;;;;;5024802;28;1984;-70
2023/10/30 00:06:28;;;;;;;;;;;22.70;68.90;;;;;;5002935;28;1766;-70
2023/10/30 00:08:53;;;;;;;;;;;22.70;69.00;;;;;;5027076;28;1260;-70
2023/10/30 00:11:22;;;;;;;;;;;22.70;69.10;;;;;;5026735;28;1462;-70
2023/10/30 00:13:47;;;;;;;;;;;22.70;69.30;;;;;;5028015;28;1119;-70
2023/10/30 00:16:12;;;;;;;;;;;22.70;69.40;;;;;;5026604;28;1373;-70
2023/10/30 00:18:41;;;;;;;;;;;22.70;69.40;;;;;;5026731;28;1550;-70
2023/10/30 00:21:07;;;;;;;;;;;22.70;69.50;;;;;;5024276;28;1249;-71
2023/10/30 00:23:32;;;;;;;;;;;22.70;69.60;;;;;;4999952;28;1903;-71
2023/10/30 00:25:59;;;;;;;;;;;22.70;69.60;;;;;;5007213;28;1440;-70
2023/10/30 00:28:24;;;;;;;;;;;22.70;69.70;;;;;;5025988;28;1458;-70
2023/10/30 00:30:50;;;;;;;;;;;22.70;69.70;;;;;;5025437;28;1603;-70
2023/10/30 00:33:15;;;;;;;;;;;22.70;69.80;;;;;;5027486;28;1363;-70
2023/10/30 00:35:41;;;;;;;;;;;22.70;69.80;;;;;;5028440;28;1302;-70
2023/10/30 00:38:06;;;;;;;;;;;22.80;69.90;;;;;;5008580;28;1364;-71
2023/10/30 00:40:32;;;;;;;;;;;22.80;70.00;;;;;;5030490;28;1395;-70
2023/10/30 00:42:57;;;;;;;;;;;22.80;70.00;;;;;;5011365;28;1965;-71
2023/10/30 00:45:23;;;;;;;;;;;22.80;70.00;;;;;;5031131;28;1414;-70
2023/10/30 00:47:48;;;;;;;;;;;22.80;70.10;;;;;;5030715;28;1915;-70
2023/10/30 00:50:14;;;;;;;;;;;22.80;70.10;;;;;;5033145;28;1406;-71
2023/10/30 00:52:39;;;;;;;;;;;22.80;70.20;;;;;;4996356;28;1199;-70
2023/10/30 00:55:05;;;;;;;;;;;22.80;70.30;;;;;;5031731;28;1374;-71
2023/10/30 00:57:31;;;;;;;;;;;22.80;70.30;;;;;;5027785;28;1501;-71
2023/10/30 00:59:56;;;;;;;;;;;22.80;70.40;;;;;;5011045;28;1361;-70
2023/10/30 01:02:21;;;;;;;;;;;22.80;70.40;;;;;;5029729;28;1971;-70
2023/10/30 01:04:47;;;;;;;;;;;22.80;70.40;;;;;;5030225;28;1473;-70
2023/10/30 01:07:13;;;;;;;;;;;22.80;70.50;;;;;;5029633;28;1458;-70
2023/10/30 01:09:38;;;;;;;;;;;22.80;70.50;;;;;;5012599;28;1454;-70
2023/10/30 01:12:03;;;;;;;;;;;22.80;70.50;;;;;;5030385;28;1443;-71
2023/10/30 01:14:29;;;;;;;;;;;22.70;70.50;;;;;;5010781;28;1526;-70
2023/10/30 01:16:54;;;;;;;;;;;22.80;70.60;;;;;;5029231;28;1511;-71
2023/10/30 01:19:20;;;;;;;;;;;22.70;70.60;;;;;;5012461;28;1425;-71
2023/10/30 01:21:45;;;;;;;;;;;22.70;70.70;;;;;;5012063;28;2314;-70
2023/10/30 01:24:11;;;;;;;;;;;22.70;70.70;;;;;;5028484;28;1622;-71
2023/10/30 01:26:38;;;;;;;;;;;22.70;70.80;;;;;;5027541;28;1928;-71
2023/10/30 01:29:04;;;;;;;;;;;22.70;71.00;;;;;;5012072;28;1349;-70
2023/10/30 01:31:30;;;;;;;;;;;22.70;71.00;;;;;;5029822;28;1391;-69
2023/10/30 01:33:55;;;;;;;;;;;22.70;71.00;;;;;;5010145;28;2279;-70
2023/10/30 01:36:21;;;;;;;;;;;22.70;71.20;;;;;;5028338;28;1341;-70
2023/10/30 01:38:46;;;;;;;;;;;22.80;71.50;;;;;;5029925;28;1475;-70
2023/10/30 01:41:12;;;;;;;;;;;22.80;71.60;;;;;;5030739;28;1334;-70
2023/10/30 01:43:37;;;;;;;;;;;22.80;71.70;;;;;;5029657;28;1895;-70
2023/10/30 01:46:03;;;;;;;;;;;22.80;72.30;;;;;;5028119;28;1553;-71
2023/10/30 01:48:31;;;;;;;;;;;22.80;71.60;;;;;;5030001;28;1391;-70
2023/10/30 01:50:57;;;;;;;;;;;22.80;71.70;;;;;;5028983;28;1344;-70
2023/10/30 01:53:23;;;;;;;;;;;22.80;71.80;;;;;;5027608;28;1680;-71
2023/10/30 01:55:48;;;;;;;;;;;22.80;71.60;;;;;;5026711;28;1952;-71
2023/10/30 01:58:14;;;;;;;;;;;22.80;71.60;;;;;;5003477;28;1290;-70
2023/10/30 02:00:39;;;;;;;;;;;22.70;71.10;;;;;;5029081;28;1359;-71
2023/10/30 02:03:05;;;;;;;;;;;22.80;70.90;;;;;;5010727;28;1902;-71
2023/10/30 02:05:30;;;;;;;;;;;22.70;70.70;;;;;;5026113;28;1846;-71
2023/10/30 02:07:56;;;;;;;;;;;22.70;70.70;;;;;;5027999;28;1387;-70
2023/10/30 02:10:21;;;;;;;;;;;22.70;70.70;;;;;;5009672;28;1526;-69
2023/10/30 02:12:50;;;;;;;;;;;22.60;70.70;;;;;;5029780;28;1501;-70
2023/10/30 02:15:15;;;;;;;;;;;22.60;70.70;;;;;;5028413;28;1914;-70
2023/10/30 02:17:41;;;;;;;;;;;22.60;70.70;;;;;;5007994;28;1670;-70
2023/10/30 02:20:07;;;;;;;;;;;22.50;70.60;;;;;;5009319;28;1488;-72
2023/10/30 02:22:32;;;;;;;;;;;22.50;70.80;;;;;;5028041;28;1910;-70
2023/10/30 02:24:59;;;;;;;;;;;22.50;70.70;;;;;;5030236;28;1345;-69
2023/10/30 02:27:24;;;;;;;;;;;22.50;70.80;;;;;;5028176;28;1434;-70
2023/10/30 02:29:49;;;;;;;;;;;22.40;70.80;;;;;;5027668;28;1508;-70
2023/10/30 02:32:15;;;;;;;;;;;22.40;70.90;;;;;;5028217;28;1407;-71
2023/10/30 02:34:40;;;;;;;;;;;22.40;70.90;;;;;;5030997;28;1183;-71
2023/10/30 02:37:06;;;;;;;;;;;22.40;70.90;;;;;;5030349;28;1606;-70
2023/10/30 02:39:34;;;;;;;;;;;22.40;71.00;;;;;;5025643;28;1700;-70
2023/10/30 02:42:01;;;;;;;;;;;22.30;70.90;;;;;;5028752;28;1953;-70
2023/10/30 02:44:28;;;;;;;;;;;22.30;71.00;;;;;;5006296;28;1565;-70
2023/10/30 02:46:54;;;;;;;;;;;22.30;71.00;;;;;;5025592;28;1006;-70
2023/10/30 02:49:20;;;;;;;;;;;22.30;71.10;;;;;;5026654;28;1284;-70
2023/10/30 02:51:45;;;;;;;;;;;22.20;71.00;;;;;;5028780;28;1303;-70
2023/10/30 02:54:11;;;;;;;;;;;22.20;71.00;;;;;;5027552;28;1522;-71
2023/10/30 02:56:36;;;;;;;;;;;22.20;71.10;;;;;;5027239;28;1331;-71
2023/10/30 02:59:02;;;;;;;;;;;22.20;71.10;;;;;;5028037;28;1380;-71
2023/10/30 03:01:28;;;;;;;;;;;22.20;71.20;;;;;;5029280;28;1300;-71
2023/10/30 03:03:54;;;;;;;;;;;22.10;71.20;;;;;;5027567;28;1902;-71
2023/10/30 03:06:19;;;;;;;;;;;22.10;71.20;;;;;;5003266;28;1566;-70
2023/10/30 03:08:45;;;;;;;;;;;22.10;71.30;;;;;;5009618;28;1481;-70
2023/10/30 03:11:10;;;;;;;;;;;22.10;71.20;;;;;;5027886;28;1299;-71
2023/10/30 03:13:36;;;;;;;;;;;22.10;71.30;;;;;;5025801;28;1494;-71
2023/10/30 03:16:01;;;;;;;;;;;22.10;71.30;;;;;;5027531;28;1376;-70
2023/10/30 03:18:27;;;;;;;;;;;22.00;71.30;;;;;;5009773;28;1434;-71
2023/10/30 03:20:52;;;;;;;;;;;22.10;71.40;;;;;;5027600;28;1433;-71
2023/10/30 03:23:20;;;;;;;;;;;22.10;71.40;;;;;;5026608;28;1973;-71
2023/10/30 03:25:45;;;;;;;;;;;22.00;71.30;;;;;;5027134;28;1339;-71
2023/10/30 03:28:11;;;;;;;;;;;22.00;71.40;;;;;;5006104;28;1704;-70
2023/10/30 03:30:36;;;;;;;;;;;22.00;71.40;;;;;;5028657;28;1416;-71
2023/10/30 03:33:05;;;;;;;;;;;21.90;71.40;;;;;;5027470;28;1554;-71
2023/10/30 03:35:31;;;;;;;;;;;22.00;71.40;;;;;;5002341;28;1475;-70
2023/10/30 03:37:56;;;;;;;;;;;21.90;71.40;;;;;;5027790;28;1459;-70
2023/10/30 03:40:21;;;;;;;;;;;21.90;71.40;;;;;;5024835;28;1533;-70
2023/10/30 03:42:47;;;;;;;;;;;21.90;71.40;;;;;;5024963;28;1910;-70
2023/10/30 03:45:13;;;;;;;;;;;21.90;71.50;;;;;;5011019;28;1545;-70
2023/10/30 03:47:38;;;;;;;;;;;21.90;71.40;;;;;;5007058;28;1592;-69
2023/10/30 03:50:06;;;;;;;;;;;21.90;71.50;;;;;;5008461;28;1604;-69
2023/10/30 03:52:31;;;;;;;;;;;21.90;71.50;;;;;;5027347;28;1328;-69
2023/10/30 03:55:03;;;;;;;;;;;21.90;71.50;;;;;;5028239;28;1252;-69
2023/10/30 03:57:29;;;;;;;;;;;21.90;71.50;;;;;;5026634;28;1409;-69
2023/10/30 03:59:54;;;;;;;;;;;21.80;71.50;;;;;;5027197;28;1485;-69
2023/10/30 04:02:20;;;;;;;;;;;21.80;71.50;;;;;;5026425;28;1914;-69
2023/10/30 04:04:45;;;;;;;;;;;21.80;71.50;;;;;;5028156;28;1448;-69
2023/10/30 04:07:11;;;;;;;;;;;21.80;71.50;;;;;;5026501;28;1282;-69
2023/10/30 04:09:36;;;;;;;;;;;21.80;71.50;;;;;;5005158;28;1454;-69
2023/10/30 04:12:02;;;;;;;;;;;21.80;71.50;;;;;;5026875;28;1261;-69
2023/10/30 04:14:30;;;;;;;;;;;21.80;71.50;;;;;;5028297;28;1699;-69
2023/10/30 04:16:56;;;;;;;;;;;21.80;71.60;;;;;;5026940;28;1267;-69
2023/10/30 04:19:22;;;;;;;;;;;21.70;71.60;;;;;;5008873;28;1317;-69
2023/10/30 04:21:47;;;;;;;;;;;21.70;71.60;;;;;;5029098;28;1910;-70
2023/10/30 04:24:13;;;;;;;;;;;21.70;71.60;;;;;;5028245;28;1342;-69
2023/10/30 04:26:38;;;;;;;;;;;21.70;71.60;;;;;;5011155;28;1286;-69
2023/10/30 04:29:04;;;;;;;;;;;21.70;71.60;;;;;;5026806;28;1603;-69
2023/10/30 04:31:29;;;;;;;;;;;21.70;71.70;;;;;;5026299;28;1451;-69
2023/10/30 04:33:55;;;;;;;;;;;21.70;71.60;;;;;;5004623;28;1116;-69
2023/10/30 04:36:20;;;;;;;;;;;21.70;71.70;;;;;;5023451;28;1458;-69
2023/10/30 04:38:46;;;;;;;;;;;21.70;71.70;;;;;;5003696;28;1472;-72
2023/10/30 04:41:11;;;;;;;;;;;21.70;71.70;;;;;;5009281;28;1683;-72
2023/10/30 04:43:37;;;;;;;;;;;21.70;71.70;;;;;;5003819;28;1890;-72
2023/10/30 04:46:03;;;;;;;;;;;21.60;71.60;;;;;;5024819;28;1740;-70
2023/10/30 04:48:31;;;;;;;;;;;21.70;71.70;;;;;;5026092;28;1415;-70
2023/10/30 04:50:56;;;;;;;;;;;21.60;71.70;;;;;;5010326;28;1492;-70
2023/10/30 04:53:22;;;;;;;;;;;21.60;71.70;;;;;;5005040;28;1234;-70
2023/10/30 04:55:50;;;;;;;;;;;21.60;71.70;;;;;;5027023;28;1526;-70
2023/10/30 04:58:16;;;;;;;;;;;21.60;71.70;;;;;;5002231;28;908;-70
2023/10/30 05:00:42;;;;;;;;;;;21.60;71.70;;;;;;5008460;28;1245;-69
2023/10/30 05:03:09;;;;;;;;;;;21.60;71.70;;;;;;5026451;28;1946;-70
2023/10/30 05:05:35;;;;;;;;;;;21.60;72.40;;;;;;5025975;28;1335;-70
2023/10/30 05:08:00;;;;;;;;;;;21.60;71.80;;;;;;5027126;28;1143;-70
2023/10/30 05:10:25;;;;;;;;;;;21.60;71.70;;;;;;5027426;28;1407;-70
2023/10/30 05:12:51;;;;;;;;;;;21.60;71.70;;;;;;5027722;28;1458;-70
2023/10/30 05:15:17;;;;;;;;;;;21.60;71.70;;;;;;5026342;28;1555;-71
2023/10/30 05:17:42;;;;;;;;;;;21.60;71.70;;;;;;5025168;28;1447;-71
2023/10/30 05:20:08;;;;;;;;;;;21.60;71.60;;;;;;5026738;28;1323;-70
2023/10/30 05:22:34;;;;;;;;;;;21.60;71.60;;;;;;5026740;28;1902;-69
2023/10/30 05:25:01;;;;;;;;;;;21.60;71.60;;;;;;5030456;28;1330;-70
2023/10/30 05:27:27;;;;;;;;;;;21.60;71.50;;;;;;5007057;28;1566;-70
2023/10/30 05:29:53;;;;;;;;;;;21.60;71.40;;;;;;5029588;28;1388;-69
2023/10/30 05:32:18;;;;;;;;;;;21.70;71.40;;;;;;5029575;28;1455;-70
2023/10/30 05:34:45;;;;;;;;;;;21.70;71.40;;;;;;5029783;28;1345;-70
2023/10/30 05:37:10;;;;;;;;;;;21.70;71.30;;;;;;5030010;28;1456;-70
2023/10/30 05:39:36;;;;;;;;;;;21.60;71.20;;;;;;5029152;28;1385;-74
2023/10/30 05:42:02;;;;;;;;;;;21.70;71.20;;;;;;5021021;28;1902;-71
2023/10/30 05:44:30;;;;;;;;;;;21.70;71.20;;;;;;5028912;28;1958;-71
2023/10/30 05:46:56;;;;;;;;;;;21.70;71.20;;;;;;5030353;28;1909;-70
2023/10/30 05:49:22;;;;;;;;;;;21.70;71.10;;;;;;5029499;28;1628;-69
2023/10/30 05:51:48;;;;;;;;;;;21.70;71.10;;;;;;5030395;28;1450;-69
2023/10/30 05:54:13;;;;;;;;;;;21.70;71.10;;;;;;5028691;28;1483;-69
2023/10/30 05:56:38;;;;;;;;;;;21.70;71.10;;;;;;5028201;28;1139;-69
2023/10/30 05:59:04;;;;;;;;;;;21.60;71.10;;;;;;5029247;28;1458;-70
2023/10/30 06:01:29;;;;;;;;;;;21.70;71.10;;;;;;5028316;28;1493;-71
2023/10/30 06:03:56;;;;;;;;;;;21.70;71.10;;;;;;5029012;28;1967;-70
2023/10/30 06:06:21;;;;;;;;;;;21.70;71.10;;;;;;5030291;28;1465;-71
2023/10/30 06:08:47;;;;;;;;;;;21.70;71.90;;;;;;5006025;28;1460;-70
2023/10/30 06:11:12;;;;;;;;;;;21.60;71.10;;;;;;5030386;28;1367;-70
2023/10/30 06:13:38;;;;;;;;;;;21.60;71.10;;;;;;5028355;28;1325;-71
2023/10/30 06:16:04;;;;;;;;;;;21.60;71.10;;;;;;5026879;28;1012;-73
2023/10/30 06:18:29;;;;;;;;;;;21.60;71.10;;;;;;5027553;28;1422;-73
2023/10/30 06:20:56;;;;;;;;;;;21.60;71.10;;;;;;5027478;28;1503;-71
2023/10/30 06:23:21;;;;;;;;;;;21.60;71.10;;;;;;5007420;28;1902;-73
2023/10/30 06:25:47;;;;;;;;;;;21.60;71.10;;;;;;5008569;28;1493;-72
2023/10/30 06:28:15;;;;;;;;;;;21.60;71.10;;;;;;5028343;28;1456;-71
2023/10/30 06:30:40;;;;;;;;;;;21.60;71.10;;;;;;5006260;28;1472;-72
2023/10/30 06:33:06;;;;;;;;;;;21.60;71.20;;;;;;5027754;28;1234;-72
2023/10/30 06:35:31;;;;;;;;;;;21.60;71.20;;;;;;5002301;28;1488;-72
2023/10/30 06:37:57;;;;;;;;;;;21.60;71.20;;;;;;5011760;28;1147;-74
2023/10/30 06:40:22;;;;;;;;;;;21.60;71.20;;;;;;5004410;28;1352;-76
2023/10/30 06:42:48;;;;;;;;;;;21.60;71.20;;;;;;5006007;28;1950;-72
2023/10/30 06:45:13;;;;;;;;;;;21.60;71.20;;;;;;5009556;28;1379;-73
2023/10/30 06:47:39;;;;;;;;;;;21.60;71.20;;;;;;5025768;28;1422;-75
2023/10/30 06:50:05;;;;;;;;;;;21.50;71.20;;;;;;5010982;28;1364;-76
2023/10/30 06:52:30;;;;;;;;;;;21.50;70.50;;;;;;5011082;28;1289;-74
2023/10/30 06:54:56;;;;;;;;;;;21.50;66.90;;;;;;5029897;28;925;-75
2023/10/30 06:57:21;;;;;;;;;;;21.50;66.80;;;;;;5008982;28;1447;-72
2023/10/30 06:59:49;;;;;;;;;;;21.50;67.20;;;;;;5027689;28;1434;-72
2023/10/30 07:02:14;;;;;;;;;;;21.50;67.40;;;;;;5011042;28;1902;-72
2023/10/30 07:04:42;;;;;;;;;;;21.50;67.60;;;;;;5005994;28;1468;-71
2023/10/30 07:07:08;;;;;;;;;;;21.50;67.80;;;;;;5022041;28;4372;-71
2023/10/30 07:09:33;;;;;;;;;;;21.50;67.90;;;;;;5024422;28;3985;-71
2023/10/30 07:11:59;;;;;;;;;;;21.50;68.20;;;;;;5029109;28;1374;-71
2023/10/30 07:14:24;;;;;;;;;;;21.50;68.40;;;;;;5028092;28;1243;-71
2023/10/30 07:16:50;;;;;;;;;;;21.50;68.60;;;;;;5026043;28;1368;-70
2023/10/30 07:19:15;;;;;;;;;;;21.50;68.80;;;;;;5026904;28;1305;-72
2023/10/30 07:21:41;;;;;;;;;;;21.50;68.90;;;;;;5025807;28;1961;-72
2023/10/30 07:24:07;;;;;;;;;;;21.50;68.90;;;;;;5026100;28;1532;-71
2023/10/30 07:26:32;;;;;;;;;;;21.50;69.00;;;;;;5025294;28;1548;-71
2023/10/30 07:28:57;;;;;;;;;;;21.50;69.00;;;;;;5028132;28;1357;-71
2023/10/30 07:31:23;;;;;;;;;;;21.50;69.10;;;;;;5025890;28;1467;-71
2023/10/30 07:33:49;;;;;;;;;;;21.50;69.20;;;;;;5026341;28;1689;-71
2023/10/30 07:36:14;;;;;;;;;;;21.50;69.20;;;;;;5026016;28;1444;-71
2023/10/30 07:38:41;;;;;;;;;;;21.50;69.20;;;;;;5009419;28;1786;-70
2023/10/30 07:41:07;;;;;;;;;;;21.50;69.30;;;;;;5026599;28;1398;-71
2023/10/30 07:43:33;;;;;;;;;;;21.50;69.20;;;;;;5007382;28;2011;-71
2023/10/30 07:45:58;;;;;;;;;;;21.50;69.30;;;;;;5026265;28;908;-72
2023/10/30 07:48:26;;;;;;;;;;;21.60;69.30;;;;;;5028239;28;1250;-72
2023/10/30 07:50:51;;;;;;;;;;;21.50;69.30;;;;;;5007940;28;1421;-72
2023/10/30 07:53:17;;;;;;;;;;;21.50;69.40;;;;;;5006161;28;1038;-72
2023/10/30 07:55:42;;;;;;;;;;;21.60;69.40;;;;;;5026082;28;1280;-72
2023/10/30 07:58:08;;;;;;;;;;;21.60;69.30;;;;;;5028752;28;1013;-71
2023/10/30 08:00:33;;;;;;;;;;;21.60;69.30;;;;;;5007697;28;1272;-71
2023/10/30 08:02:59;;;;;;;;;;;21.60;69.40;;;;;;5000902;28;1902;-71
2023/10/30 08:05:25;;;;;;;;;;;21.60;69.40;;;;;;5025973;28;1301;-72
2023/10/30 08:07:51;;;;;;;;;;;21.60;69.40;;;;;;5026966;28;1257;-71
2023/10/30 08:10:17;;;;;;;;;;;21.60;69.30;;;;;;5026079;28;1522;-71
2023/10/30 08:12:42;;;;;;;;;;;21.60;69.40;;;;;;5004240;28;1690;-71
2023/10/30 08:15:07;;;;;;;;;;;21.60;69.40;;;;;;5025167;28;1593;-71
2023/10/30 08:17:33;;;;;;;;;;;21.60;69.30;;;;;;5027457;28;1364;-72
2023/10/30 08:19:58;;;;;;;;;;;21.60;69.30;;;;;;5027092;28;1400;-70
2023/10/30 08:22:24;;;;;;;;;;;21.60;69.40;;;;;;5026542;28;1898;-71
2023/10/30 08:24:50;;;;;;;;;;;21.60;69.30;;;;;;5025911;28;1387;-72
2023/10/30 08:27:15;;;;;;;;;;;21.60;69.30;;;;;;5027265;28;1491;-71
2023/10/30 08:29:41;;;;;;;;;;;21.60;69.30;;;;;;5003155;28;1514;-71
2023/10/30 08:32:06;;;;;;;;;;;21.60;69.30;;;;;;5025912;28;1388;-72
2023/10/30 08:34:32;;;;;;;;;;;21.60;69.30;;;;;;5026839;28;1579;-70
2023/10/30 08:36:58;;;;;;;;;;;21.60;69.30;;;;;;5027162;28;1256;-72
2023/10/30 08:39:23;;;;;;;;;;;21.60;69.30;;;;;;5026600;28;1407;-71
2023/10/30 08:41:49;;;;;;;;;;;21.60;69.40;;;;;;5026727;28;1981;-72
2023/10/30 08:44:14;;;;;;;;;;;21.60;69.40;;;;;;5009361;28;1494;-72
2023/10/30 08:46:43;;;;;;;;;;;21.60;69.40;;;;;;5024442;28;1537;-71
2023/10/30 08:49:08;;;;;;;;;;;21.60;69.40;;;;;;5027487;28;1649;-72
2023/10/30 08:51:41;;;;;;;;;;;21.60;69.40;;;;;;5024421;28;1401;-71
2023/10/30 08:54:09;;;;;;;;;;;21.60;69.40;;;;;;4990980;28;1554;-72
2023/10/30 08:56:35;;;;;;;;;;;21.60;69.50;;;;;;5000836;28;1569;-71
2023/10/30 08:59:03;;;;;;;;;;;21.60;69.50;;;;;;5030537;28;1406;-72
2023/10/30 09:01:31;;;;;;;;;;;21.60;69.50;;;;;;5031844;28;1488;-72
2023/10/30 09:03:56;;;;;;;;;;;21.60;69.60;;;;;;5006216;28;1918;-74
2023/10/30 09:06:22;;;;;;;;;;;21.60;69.60;;;;;;5027741;28;1484;-72
2023/10/30 09:08:47;;;;;;;;;;;21.60;69.60;;;;;;5029913;28;1215;-72
2023/10/30 09:11:13;;;;;;;;;;;21.60;69.60;;;;;;5031049;28;1885;-72
2023/10/30 09:13:38;;;;;;;;;;;21.50;69.60;;;;;;5030645;28;1419;-72
2023/10/30 09:16:05;;;;;;;;;;;21.60;69.70;;;;;;5030242;28;1389;-72
2023/10/30 09:18:30;;;;;;;;;;;21.50;69.60;;;;;;5028099;28;1349;-71
2023/10/30 09:20:56;;;;;;;;;;;21.50;69.70;;;;;;5030899;28;1342;-72
2023/10/30 09:23:21;;;;;;;;;;;21.50;69.70;;;;;;5027930;28;1898;-72
2023/10/30 09:25:47;;;;;;;;;;;21.50;69.70;;;;;;5029237;28;1389;-72
2023/10/30 09:28:12;;;;;;;;;;;21.50;69.80;;;;;;5030917;28;1817;-73
2023/10/30 09:30:37;;;;;;;;;;;21.50;69.80;;;;;;5012194;28;1691;-72
2023/10/30 09:33:03;;;;;;;;;;;21.50;69.80;;;;;;5030708;28;1372;-73
2023/10/30 09:35:30;;;;;;;;;;;21.50;69.90;;;;;;5031446;28;1357;-73
2023/10/30 09:37:56;;;;;;;;;;;21.50;69.90;;;;;;5029844;28;1410;-72
2023/10/30 09:40:26;;;;;;;;;;;21.50;69.90;;;;;;5031766;28;1379;-72
2023/10/30 09:42:52;;;;;;;;;;;21.50;70.00;;;;;;5009756;28;1973;-71
2023/10/30 09:45:18;;;;;;;;;;;21.50;69.90;;;;;;5029786;28;1557;-71
2023/10/30 09:47:44;;;;;;;;;;;21.50;69.90;;;;;;5030246;28;1284;-72
2023/10/30 09:50:09;;;;;;;;;;;21.50;70.00;;;;;;5004055;28;1586;-71
2023/10/30 09:52:35;;;;;;;;;;;21.50;69.90;;;;;;5010449;28;1458;-72
2023/10/30 09:55:04;;;;;;;;;;;21.50;69.90;;;;;;5009099;28;1015;-72
2023/10/30 09:57:30;;;;;;;;;;;21.50;69.90;;;;;;5005406;28;1567;-71
2023/10/30 09:59:56;;;;;;;;;;;21.50;69.90;;;;;;5006147;28;1511;-71
2023/10/30 10:02:22;;;;;;;;;;;21.50;69.90;;;;;;5028681;28;1902;-72
2023/10/30 10:04:47;;;;;;;;;;;21.50;69.80;;;;;;5025402;28;2282;-71
2023/10/30 10:07:13;;;;;;;;;;;21.50;69.80;;;;;;5027540;28;1328;-72
2023/10/30 10:10:00;;;;;;;;;;;21.50;69.80;;;;;;5008865;28;1447;-72
2023/10/30 10:12:26;;;;;;;;;;;21.50;69.80;;;;;;5027732;28;1535;-71
2023/10/30 10:14:51;;;;;;;;;;;21.50;69.70;;;;;;5006076;28;1511;-72
2023/10/30 10:17:17;;;;;;;;;;;21.50;69.70;;;;;;5028328;28;1115;-72
2023/10/30 10:19:45;;;;;;;;;;;21.50;69.70;;;;;;5027605;28;1424;-72
2023/10/30 10:22:10;;;;;;;;;;;21.50;69.80;;;;;;4992423;28;1902;-72
2023/10/30 10:24:39;;;;;;;;;;;21.50;69.70;;;;;;5027318;28;1442;-71
2023/10/30 10:27:06;;;;;;;;;;;21.50;69.70;;;;;;5028256;28;1283;-71
2023/10/30 10:29:32;;;;;;;;;;;21.50;69.80;;;;;;5029322;28;1348;-71
2023/10/30 10:31:57;;;;;;;;;;;21.50;69.80;;;;;;5025438;28;1515;-71
2023/10/30 10:34:23;;;;;;;;;;;21.50;69.80;;;;;;5029458;28;1432;-71
2023/10/30 10:36:48;;;;;;;;;;;21.50;69.80;;;;;;5029838;28;867;-71
2023/10/30 10:39:14;;;;;;;;;;;21.50;69.80;;;;;;5028822;28;1135;-70
2023/10/30 10:41:39;;;;;;;;;;;21.50;69.80;;;;;;5021930;28;1529;-71
2023/10/30 10:44:05;;;;;;;;;;;21.50;69.90;;;;;;5009543;28;1903;-70
2023/10/30 10:46:30;;;;;;;;;;;21.50;70.00;;;;;;5002451;28;1818;-70
2023/10/30 10:48:56;;;;;;;;;;;21.50;69.90;;;;;;5029362;28;1474;-71
2023/10/30 10:51:29;;;;;;;;;;;21.50;70.00;;;;;;5028065;28;1854;-72
2023/10/30 10:53:55;;;;;;;;;;;21.50;70.00;;;;;;5012257;28;1230;-71
2023/10/30 10:56:20;;;;;;;;;;;21.50;70.00;;;;;;5008832;28;1478;-71
2023/10/30 10:58:55;;;;;;;;;;;21.50;70.00;;;;;;5010865;28;1262;-72
2023/10/30 11:01:21;;;;;;;;;;;21.50;70.00;;;;;;5007303;28;1356;-70
2023/10/30 11:03:48;;;;;;;;;;;21.50;70.10;;;;;;5011608;28;1910;-71
2023/10/30 11:06:14;;;;;;;;;;;21.50;70.10;;;;;;5026720;28;1472;-72
2023/10/30 11:08:50;;;;;;;;;;;21.40;70.00;;;;;;4988456;28;1443;-71
2023/10/30 11:11:22;;;;;;;;;;;21.40;70.00;;;;;;5005562;28;1470;-71
2023/10/30 11:14:08;;;;;;;;;;;21.40;70.10;;;;;;5028863;28;1524;-71
2023/10/30 11:17:01;;;;;;;;;;;21.40;70.10;;;;;;5002297;28;1446;-72
2023/10/30 11:19:28;;;;;;;;;;;21.50;70.30;;;;;;5024143;28;1496;-73
2023/10/30 11:21:54;;;;;;;;;;;21.50;70.30;;;;;;5025299;28;1926;-71
2023/10/30 11:24:38;;;;;;;;;;;21.50;70.40;;;;;;5029175;28;1394;-71
2023/10/30 11:27:22;;;;;;;;;;;21.50;70.30;;;;;;5027072;28;1323;-72
2023/10/30 11:30:08;;;;;;;;;;;21.60;70.30;;;;;;5027536;28;1401;-71
2023/10/30 11:32:37;;;;;;;;;;;21.60;70.30;;;;;;5027449;28;1298;-71
2023/10/30 11:35:03;;;;;;;;;;;21.70;70.30;;;;;;5026453;28;1327;-71
2023/10/30 11:37:29;;;;;;;;;;;21.70;70.30;;;;;;5027630;28;2232;-71
2023/10/30 11:39:55;;;;;;;;;;;21.70;70.20;;;;;;5005959;28;1528;-71
2023/10/30 11:42:32;;;;;;;;;;;21.80;70.20;;;;;;5010549;28;1966;-72
2023/10/30 11:45:17;;;;;;;;;;;21.80;70.10;;;;;;5026975;28;1475;-72
2023/10/30 11:47:45;;;;;;;;;;;21.80;70.10;;;;;;5004719;28;1931;-71
2023/10/30 11:50:11;;;;;;;;;;;21.80;70.10;;;;;;5006631;28;1413;-72
2023/10/30 11:52:39;;;;;;;;;;;21.80;70.10;;;;;;5006532;28;1483;-71
2023/10/30 11:55:05;;;;;;;;;;;21.80;70.10;;;;;;5009184;28;1392;-72
2023/10/30 11:57:31;;;;;;;;;;;21.90;70.10;;;;;;5027071;28;1321;-71
2023/10/30 11:59:56;;;;;;;;;;;21.90;70.00;;;;;;5004257;28;1396;-72
2023/10/30 12:02:21;;;;;;;;;;;21.90;69.90;;;;;;5007195;28;1895;-71
2023/10/30 12:04:47;;;;;;;;;;;21.90;69.80;;;;;;5028164;28;1439;-72
2023/10/30 12:07:18;;;;;;;;;;;21.90;69.80;;;;;;5027215;28;1451;-71
2023/10/30 12:09:44;;;;;;;;;;;21.90;69.70;;;;;;5027336;28;1399;-71
2023/10/30 12:12:09;;;;;;;;;;;21.90;69.50;;;;;;5028002;28;1530;-71
2023/10/30 12:14:35;;;;;;;;;;;21.90;69.40;;;;;;5003878;28;1374;-71
2023/10/30 12:17:02;;;;;;;;;;;21.90;69.50;;;;;;5025644;28;1194;-72
2023/10/30 12:19:28;;;;;;;;;;;21.90;69.60;;;;;;5008106;28;1505;-71
2023/10/30 12:21:53;;;;;;;;;;;21.90;69.70;;;;;;5027147;28;1953;-70
2023/10/30 12:24:19;;;;;;;;;;;21.90;69.80;;;;;;5008526;28;1454;-71
2023/10/30 12:26:46;;;;;;;;;;;22.00;69.80;;;;;;5024301;28;1654;-71
2023/10/30 12:29:14;;;;;;;;;;;22.00;69.90;;;;;;5027433;28;1248;-71
2023/10/30 12:31:40;;;;;;;;;;;21.90;69.50;;;;;;5008763;28;1656;-72
2023/10/30 12:34:09;;;;;;;;;;;22.00;69.50;;;;;;5034552;28;1422;-71
2023/10/30 12:36:34;;;;;;;;;;;22.00;69.60;;;;;;5009601;28;1281;-72
2023/10/30 12:39:12;;;;;;;;;;;22.00;69.40;;;;;;5033896;28;1327;-71
2023/10/30 12:41:37;;;;;;;;;;;22.00;69.40;;;;;;5031446;28;1466;-72
2023/10/30 12:44:03;;;;;;;;;;;22.00;69.20;;;;;;5034509;28;1914;-71
2023/10/30 12:46:28;;;;;;;;;;;22.00;69.30;;;;;;5014844;28;1266;-71
2023/10/30 12:48:53;;;;;;;;;;;22.00;69.20;;;;;;5034487;28;1345;-71
2023/10/30 12:51:19;;;;;;;;;;;22.00;69.10;;;;;;5033138;28;1434;-71
2023/10/30 12:53:45;;;;;;;;;;;22.00;69.10;;;;;;5033487;28;1428;-72
2023/10/30 12:56:11;;;;;;;;;;;22.00;69.00;;;;;;5021998;28;1636;-72
2023/10/30 12:58:36;;;;;;;;;;;22.00;69.00;;;;;;5033048;28;1288;-72
2023/10/30 13:01:03;;;;;;;;;;;22.00;68.90;;;;;;5032793;28;1604;-72
2023/10/30 13:03:29;;;;;;;;;;;22.00;68.80;;;;;;5029756;28;1914;-72
2023/10/30 13:05:54;;;;;;;;;;;22.00;68.80;;;;;;5009283;28;1265;-70
2023/10/30 13:08:20;;;;;;;;;;;21.90;68.60;;;;;;5032961;28;1430;-70
2023/10/30 13:10:46;;;;;;;;;;;21.90;68.70;;;;;;5030843;28;1239;-70
2023/10/30 13:13:16;;;;;;;;;;;21.90;68.70;;;;;;4995161;28;1250;-70
2023/10/30 13:15:45;;;;;;;;;;;22.00;68.80;;;;;;5008738;28;1590;-71
2023/10/30 13:18:11;;;;;;;;;;;21.90;68.70;;;;;;5032442;28;1536;-70
2023/10/30 13:20:37;;;;;;;;;;;21.90;68.70;;;;;;5031050;28;1675;-70
2023/10/30 13:23:03;;;;;;;;;;;22.00;68.80;;;;;;5000600;28;1918;-71
2023/10/30 13:25:28;;;;;;;;;;;22.00;68.80;;;;;;5008859;28;991;-70
2023/10/30 13:27:54;;;;;;;;;;;22.00;68.90;;;;;;5033169;28;939;-71
2023/10/30 13:30:21;;;;;;;;;;;21.90;68.80;;;;;;5010334;28;1297;-72
2023/10/30 13:32:46;;;;;;;;;;;22.00;68.80;;;;;;5029104;28;1280;-71
2023/10/30 13:35:13;;;;;;;;;;;22.00;68.80;;;;;;5031531;28;1398;-71
2023/10/30 13:37:39;;;;;;;;;;;22.00;68.80;;;;;;5030482;28;1320;-70
2023/10/30 13:40:05;;;;;;;;;;;22.00;68.70;;;;;;5032595;28;1288;-72
2023/10/30 13:42:30;;;;;;;;;;;22.00;68.70;;;;;;5031295;28;1910;-70
2023/10/30 13:44:56;;;;;;;;;;;22.00;68.70;;;;;;5028439;28;1108;-71
2023/10/30 13:47:21;;;;;;;;;;;22.00;68.70;;;;;;5030295;28;1287;-70
2023/10/30 13:49:47;;;;;;;;;;;22.00;68.60;;;;;;5028442;28;1554;-71
2023/10/30 13:52:15;;;;;;;;;;;22.00;68.60;;;;;;5030650;28;1462;-72
2023/10/30 13:54:41;;;;;;;;;;;22.00;68.60;;;;;;5009617;28;1485;-70
2023/10/30 13:57:07;;;;;;;;;;;22.00;68.60;;;;;;5008179;28;1479;-71
2023/10/30 13:59:32;;;;;;;;;;;22.00;68.50;;;;;;5028914;28;1526;-70
2023/10/30 14:01:58;;;;;;;;;;;22.00;68.50;;;;;;5029286;28;1894;-71
2023/10/30 14:04:23;;;;;;;;;;;22.10;68.50;;;;;;5027743;28;1589;-70
2023/10/30 14:06:48;;;;;;;;;;;22.10;68.50;;;;;;5027730;28;1295;-71
2023/10/30 14:09:14;;;;;;;;;;;22.10;69.10;;;;;;5028066;28;1500;-70
2023/10/30 14:11:39;;;;;;;;;;;22.10;68.30;;;;;;5028575;28;1532;-71
2023/10/30 14:14:05;;;;;;;;;;;22.10;68.30;;;;;;5009292;28;1404;-70
2023/10/30 14:16:30;;;;;;;;;;;22.10;68.20;;;;;;5028749;28;1558;-70
2023/10/30 14:18:56;;;;;;;;;;;22.20;68.20;;;;;;5029832;28;1268;-70
2023/10/30 14:21:24;;;;;;;;;;;22.20;68.20;;;;;;5010065;28;1464;-70
2023/10/30 14:23:50;;;;;;;;;;;22.20;68.10;;;;;;5029376;28;1969;-70
2023/10/30 14:26:15;;;;;;;;;;;22.20;68.10;;;;;;5028776;28;1132;-69